createdAt,value
2018-03-02T00:01:15.879Z,41.62
2018-03-02T00:03:43.465Z,42.15
2018-03-02T00:06:10.986Z,42.26
2018-03-02T00:08:38.549Z,42.20
2018-03-02T00:11:06.073Z,41.87
2018-03-02T00:13:33.637Z,42.36
2018-03-02T00:16:01.176Z,42.23
2018-03-02T00:18:28.757Z,42.58
2018-03-02T00:20:56.301Z,42.56
2018-03-02T00:23:23.880Z,41.94
2018-03-02T00:25:51.416Z,42.00
2018-03-02T00:28:18.944Z,42.56
2018-03-02T00:30:46.503Z,42.11
2018-03-02T00:33:14.044Z,42.48
2018-03-02T00:35:41.610Z,42.07
2018-03-02T00:38:09.133Z,42.17
2018-03-02T00:40:36.695Z,41.95
2018-03-02T00:43:04.251Z,41.82
2018-03-02T00:45:31.827Z,42.41
2018-03-02T00:47:59.366Z,42.59
2018-03-02T00:50:26.907Z,42.70
2018-03-02T00:52:55.332Z,42.65
2018-03-02T00:55:22.847Z,42.46
2018-03-02T00:57:50.409Z,42.38
2018-03-02T01:00:17.952Z,42.88
2018-03-02T01:02:45.524Z,42.99
2018-03-02T01:05:13.123Z,42.94
2018-03-02T01:07:40.719Z,43.32
2018-03-02T01:10:08.248Z,43.14
2018-03-02T01:12:35.835Z,42.93
2018-03-02T01:15:03.379Z,42.79
2018-03-02T01:17:30.934Z,43.27
2018-03-02T01:19:58.536Z,43.31
2018-03-02T01:22:26.060Z,43.24
2018-03-02T01:24:53.621Z,43.51
2018-03-02T01:27:21.155Z,43.83
2018-03-02T01:29:48.719Z,43.54
2018-03-02T01:32:16.262Z,43.01
2018-03-02T01:34:43.857Z,43.41
2018-03-02T01:37:11.380Z,43.23
2018-03-02T01:39:38.969Z,43.37
2018-03-02T01:42:06.508Z,43.39
2018-03-02T01:44:34.198Z,43.80
2018-03-02T01:47:01.891Z,43.73
2018-03-02T01:49:29.823Z,44.26
2018-03-02T01:51:57.628Z,44.11
2018-03-02T01:54:25.515Z,44.13
2018-03-02T01:56:53.094Z,43.95
2018-03-02T01:59:20.618Z,43.67
2018-03-02T02:01:48.178Z,44.17
2018-03-02T02:04:15.763Z,44.06
2018-03-02T02:06:43.339Z,43.85
2018-03-02T02:09:10.962Z,43.95
2018-03-02T02:11:38.486Z,43.60
2018-03-02T02:14:06.043Z,43.36
2018-03-02T02:16:33.563Z,44.23
2018-03-02T02:19:01.137Z,44.21
2018-03-02T02:21:28.663Z,43.93
2018-03-02T02:23:56.235Z,43.97
2018-03-02T02:26:23.791Z,44.25
2018-03-02T02:28:51.321Z,44.19
2018-03-02T02:31:18.901Z,43.89
2018-03-02T02:33:46.428Z,44.03
2018-03-02T02:36:14.000Z,44.22
2018-03-02T02:38:41.543Z,43.60
2018-03-02T02:41:09.111Z,44.33
2018-03-02T02:43:36.637Z,44.00
2018-03-02T02:46:04.217Z,43.82
2018-03-02T02:48:31.756Z,44.24
2018-03-02T02:50:59.324Z,43.95
2018-03-02T02:53:26.871Z,44.29
2018-03-02T02:55:55.942Z,43.82
2018-03-02T02:58:23.522Z,44.48
2018-03-02T03:00:51.060Z,44.16
2018-03-02T03:03:18.660Z,44.26
2018-03-02T03:05:46.201Z,44.15
2018-03-02T03:08:13.774Z,44.28
2018-03-02T03:10:41.306Z,44.64
2018-03-02T03:13:08.837Z,43.99
2018-03-02T03:15:36.401Z,44.31
2018-03-02T03:18:03.932Z,44.89
2018-03-02T03:20:31.522Z,44.98
2018-03-02T03:22:59.048Z,44.41
2018-03-02T03:25:26.598Z,44.95
2018-03-02T03:27:54.152Z,45.38
2018-03-02T03:30:21.727Z,45.60
2018-03-02T03:32:49.253Z,44.94
2018-03-02T03:35:16.809Z,45.81
2018-03-02T03:37:44.383Z,46.08
2018-03-02T03:40:11.912Z,46.12
2018-03-02T03:42:39.491Z,46.53
2018-03-02T03:45:07.021Z,46.07
2018-03-02T03:47:34.595Z,46.80
2018-03-02T03:50:02.123Z,46.97
2018-03-02T03:52:29.733Z,47.19
2018-03-02T03:54:57.320Z,47.34
2018-03-02T03:57:24.874Z,47.11
2018-03-02T03:59:52.492Z,47.23
2018-03-02T04:02:20.032Z,47.32
2018-03-02T04:04:47.594Z,47.64
2018-03-02T04:07:15.144Z,47.43
2018-03-02T04:09:42.711Z,47.22
2018-03-02T04:12:10.234Z,47.45
2018-03-02T04:14:37.821Z,47.11
2018-03-02T04:17:05.368Z,47.93
2018-03-02T04:19:32.951Z,47.46
2018-03-02T04:22:00.488Z,47.57
2018-03-02T04:24:28.048Z,47.72
2018-03-02T04:26:55.584Z,48.22
2018-03-02T04:29:23.129Z,47.75
2018-03-02T04:31:50.708Z,47.50
2018-03-02T04:34:18.253Z,48.13
2018-03-02T04:36:45.812Z,48.23
2018-03-02T04:39:13.340Z,47.86
2018-03-02T04:41:40.914Z,48.46
2018-03-02T04:44:08.472Z,48.64
2018-03-02T04:46:36.123Z,48.43
2018-03-02T04:49:03.675Z,49.15
2018-03-02T04:51:31.252Z,50.18
2018-03-02T04:53:58.781Z,51.33
2018-03-02T04:56:27.129Z,51.49
2018-03-02T04:58:54.668Z,50.59
2018-03-02T05:01:22.217Z,50.35
2018-03-02T05:03:49.787Z,50.46
2018-03-02T05:06:21.562Z,50.28
2018-03-02T05:08:49.315Z,50.12
2018-03-02T05:11:16.864Z,50.15
2018-03-02T05:13:44.499Z,49.86
2018-03-02T05:16:12.015Z,49.55
2018-03-02T05:18:39.580Z,49.11
2018-03-02T05:21:07.137Z,49.28
2018-03-02T05:23:34.709Z,49.05
2018-03-02T05:26:02.246Z,49.42
2018-03-02T05:28:29.779Z,49.56
2018-03-02T05:30:57.365Z,49.20
2018-03-02T05:33:26.867Z,48.94
2018-03-02T05:35:56.952Z,48.90
2018-03-02T05:38:24.646Z,48.76
2018-03-02T05:40:53.035Z,49.79
2018-03-02T05:43:20.679Z,48.96
2018-03-02T05:45:48.264Z,49.04
2018-03-02T05:48:15.800Z,49.00
2018-03-02T05:50:44.376Z,49.04
2018-03-02T05:53:11.933Z,49.08
2018-03-02T05:55:39.539Z,49.36
2018-03-02T05:58:07.094Z,49.58
2018-03-02T06:00:34.642Z,49.32
2018-03-02T06:03:02.218Z,48.89
2018-03-02T06:05:29.745Z,48.86
2018-03-02T06:07:57.330Z,48.97
2018-03-02T06:10:24.886Z,49.32
2018-03-02T06:12:54.271Z,48.92
2018-03-02T06:15:22.054Z,49.01
2018-03-02T06:17:50.388Z,49.48
2018-03-02T06:20:18.067Z,49.33
2018-03-02T06:22:45.669Z,49.88
2018-03-02T06:25:13.216Z,50.10
2018-03-02T06:27:40.771Z,50.57
2018-03-02T06:30:08.346Z,50.50
2018-03-02T06:32:35.895Z,50.13
2018-03-02T06:35:03.474Z,49.20
2018-03-02T06:37:30.996Z,49.23
2018-03-02T06:39:58.635Z,49.81
2018-03-02T06:42:26.156Z,49.37
2018-03-02T06:44:53.679Z,50.06
2018-03-02T06:47:21.256Z,49.63
2018-03-02T06:49:48.799Z,49.82
2018-03-02T06:52:16.359Z,50.50
2018-03-02T06:54:43.955Z,50.45
2018-03-02T06:57:11.512Z,49.38
2018-03-02T06:59:39.048Z,50.08
2018-03-02T07:02:06.625Z,49.27
2018-03-02T07:04:34.154Z,49.66
2018-03-02T07:07:01.747Z,49.97
2018-03-02T07:09:29.445Z,50.28
2018-03-02T07:11:56.976Z,50.62
2018-03-02T07:14:24.579Z,49.54
2018-03-02T07:16:52.163Z,50.14
2018-03-02T07:19:19.777Z,50.11
2018-03-02T07:21:47.315Z,49.51
2018-03-02T07:24:14.895Z,49.52
2018-03-02T07:26:42.429Z,49.91
2018-03-02T07:29:10.009Z,49.53
2018-03-02T07:31:37.535Z,49.58
2018-03-02T07:34:05.065Z,49.37
2018-03-02T07:36:32.636Z,49.06
2018-03-02T07:39:00.181Z,49.29
2018-03-02T07:41:27.740Z,49.55
2018-03-02T07:43:55.351Z,49.94
2018-03-02T07:46:23.148Z,49.37
2018-03-02T07:48:50.693Z,49.46
2018-03-02T07:51:18.307Z,50.83
2018-03-02T07:53:45.845Z,51.87
2018-03-02T07:56:13.503Z,51.19
2018-03-02T07:58:41.153Z,51.80
2018-03-02T08:01:08.795Z,51.84
2018-03-02T08:03:36.456Z,53.01
2018-03-02T08:06:04.075Z,52.38
2018-03-02T08:08:31.886Z,54.55
2018-03-02T08:11:01.329Z,54.89
2018-03-02T08:13:31.705Z,56.57
2018-03-02T08:16:05.349Z,58.14
2018-03-02T08:18:33.165Z,57.55
2018-03-02T08:21:00.701Z,56.08
2018-03-02T08:23:28.275Z,58.63
2018-03-02T08:25:56.032Z,59.17
2018-03-02T08:28:23.727Z,59.10
2018-03-02T08:30:51.365Z,61.89
2018-03-02T08:33:18.883Z,62.21
2018-03-02T08:35:46.506Z,62.67
2018-03-02T08:38:14.236Z,66.13
2018-03-02T08:40:41.836Z,63.64
2018-03-02T08:43:09.367Z,65.10
2018-03-02T08:45:38.393Z,66.76
2018-03-02T08:48:06.096Z,66.03
2018-03-02T08:50:33.699Z,67.80
2018-03-02T08:53:01.247Z,66.60
2018-03-02T08:55:28.811Z,65.59
2018-03-02T08:57:56.486Z,68.56
2018-03-02T09:00:24.004Z,66.67
2018-03-02T09:02:51.582Z,65.67
2018-03-02T09:05:19.161Z,68.67
2018-03-02T09:07:46.744Z,66.33
2018-03-02T09:10:14.335Z,65.69
2018-03-02T09:12:41.892Z,67.09
2018-03-02T09:15:09.422Z,68.99
2018-03-02T09:17:37.880Z,68.46
2018-03-02T09:20:05.427Z,68.70
2018-03-02T09:22:32.988Z,67.90
2018-03-02T09:25:01.269Z,67.58
2018-03-02T09:27:28.835Z,67.85
2018-03-02T09:29:56.393Z,69.18
2018-03-02T09:32:23.978Z,67.36
2018-03-02T09:34:51.532Z,69.48
2018-03-02T09:37:19.109Z,67.80
2018-03-02T09:39:46.645Z,69.97
2018-03-02T09:42:14.170Z,67.77
2018-03-02T09:44:41.724Z,70.80
2018-03-02T09:47:09.264Z,67.98
2018-03-02T09:49:36.826Z,69.11
2018-03-02T09:52:04.356Z,69.77
2018-03-02T09:54:31.924Z,69.03
2018-03-02T09:56:59.463Z,69.05
2018-03-02T09:59:27.208Z,68.93
2018-03-02T10:01:54.735Z,72.50
2018-03-02T10:04:22.286Z,72.72
2018-03-02T10:06:49.871Z,70.60
2018-03-02T10:09:17.547Z,72.99
2018-03-02T10:11:45.144Z,71.21
2018-03-02T10:14:12.667Z,68.87
2018-03-02T10:16:40.243Z,68.38
2018-03-02T10:19:07.787Z,69.19
2018-03-02T10:21:35.617Z,70.96
2018-03-02T10:24:03.142Z,68.27
2018-03-02T10:26:31.592Z,69.77
2018-03-02T10:28:59.304Z,70.83
2018-03-02T10:31:27.208Z,70.83
2018-03-02T10:33:55.325Z,70.78
2018-03-02T10:36:22.893Z,68.03
2018-03-02T10:38:50.467Z,67.49
2018-03-02T10:41:22.062Z,71.92
2018-03-02T10:43:53.434Z,69.81
2018-03-02T10:46:21.932Z,68.32
2018-03-02T10:48:50.086Z,67.06
2018-03-02T10:51:18.334Z,68.01
2018-03-02T10:53:45.916Z,68.47
2018-03-02T10:56:13.939Z,67.05
2018-03-02T10:58:41.564Z,67.70
2018-03-02T11:01:12.187Z,67.71
2018-03-02T11:06:34.196Z,68.79
2018-03-02T11:09:02.074Z,67.58
2018-03-02T11:11:29.644Z,69.49
2018-03-02T11:13:57.370Z,70.10
2018-03-02T11:16:24.910Z,69.08
2018-03-02T11:18:52.445Z,70.37
2018-03-02T11:21:20.013Z,69.95
2018-03-02T11:23:47.838Z,73.22
2018-03-02T11:26:16.070Z,74.46
2018-03-02T11:28:45.255Z,71.52
2018-03-02T11:31:12.848Z,71.11
2018-03-02T11:33:40.370Z,74.05
2018-03-02T11:36:07.937Z,72.73
2018-03-02T11:38:35.555Z,75.07
2018-03-02T11:41:03.148Z,74.40
2018-03-02T11:43:30.703Z,74.61
2018-03-02T11:45:58.260Z,71.81
2018-03-02T11:48:25.872Z,72.73
2018-03-02T11:50:53.439Z,72.33
2018-03-02T11:53:21.016Z,72.93
2018-03-02T11:55:48.559Z,75.20
2018-03-02T11:58:16.112Z,73.09
2018-03-02T12:00:43.665Z,73.75
2018-03-02T12:03:11.220Z,75.03
2018-03-02T12:05:38.751Z,73.25
2018-03-02T12:08:06.330Z,72.89
2018-03-02T12:10:33.874Z,74.07
2018-03-02T12:13:02.406Z,73.15
2018-03-02T12:15:29.954Z,73.92
2018-03-02T12:17:57.626Z,75.65
2018-03-02T12:20:25.740Z,74.28
2018-03-02T12:22:53.352Z,75.91
2018-03-02T12:25:23.819Z,76.52
2018-03-02T12:27:54.894Z,75.34
2018-03-02T12:30:22.699Z,74.97
2018-03-02T12:32:50.236Z,73.85
2018-03-02T12:35:18.016Z,73.97
2018-03-02T12:37:45.548Z,73.67
2018-03-02T12:40:13.789Z,73.04
2018-03-02T12:42:41.468Z,75.28
2018-03-02T12:45:09.016Z,73.80
2018-03-02T12:47:36.564Z,73.53
2018-03-02T12:50:04.089Z,72.49
2018-03-02T12:52:32.331Z,74.34
2018-03-02T12:55:03.004Z,74.91
2018-03-02T12:57:36.933Z,74.23
2018-03-02T13:00:09.632Z,74.72
2018-03-02T13:02:45.083Z,73.63
2018-03-02T13:05:20.204Z,74.19
2018-03-02T13:07:52.328Z,74.81
2018-03-02T13:10:25.739Z,77.47
2018-03-02T13:13:00.191Z,76.85
2018-03-02T13:15:34.210Z,74.15
2018-03-02T13:18:08.221Z,74.06
2018-03-02T13:20:41.817Z,73.88
2018-03-02T13:23:10.795Z,74.99
2018-03-02T13:25:38.406Z,74.43
2018-03-02T13:28:17.815Z,74.19
2018-03-02T13:30:45.363Z,74.04
2018-03-02T13:33:24.658Z,74.70
2018-03-02T13:35:52.513Z,75.79
2018-03-02T13:38:20.333Z,76.05
2018-03-02T13:41:00.056Z,75.19
2018-03-02T13:43:27.664Z,74.41
2018-03-02T13:45:55.222Z,73.57
2018-03-02T13:48:43.397Z,74.59
2018-03-02T13:51:10.961Z,75.66
2018-03-02T13:53:38.559Z,77.80
2018-03-02T13:56:06.127Z,75.13
2018-03-02T13:58:33.687Z,78.41
2018-03-02T14:01:01.667Z,77.48
2018-03-02T14:03:41.188Z,77.32
2018-03-02T14:06:08.746Z,79.13
2018-03-02T14:08:36.280Z,79.48
2018-03-02T14:11:04.109Z,77.22
2018-03-02T14:13:31.674Z,77.48
2018-03-02T14:15:59.246Z,77.86
2018-03-02T14:18:26.799Z,76.81
2018-03-02T14:20:55.994Z,76.23
2018-03-02T14:23:23.570Z,76.34
2018-03-02T14:25:51.104Z,78.12
2018-03-02T14:28:18.680Z,76.80
2018-03-02T14:30:46.208Z,76.26
2018-03-02T14:33:14.564Z,76.00
2018-03-02T14:35:42.887Z,77.98
2018-03-02T14:38:12.986Z,77.60
2018-03-02T14:40:41.390Z,78.73
2018-03-02T14:43:08.946Z,78.71
2018-03-02T14:45:36.468Z,78.56
2018-03-02T14:48:04.079Z,77.45
2018-03-02T14:50:31.615Z,77.23
2018-03-02T14:52:59.391Z,76.53
2018-03-02T14:55:27.012Z,76.39
2018-03-02T14:57:54.759Z,77.22
2018-03-02T15:00:22.327Z,77.57
2018-03-02T15:02:49.890Z,76.18
2018-03-02T15:05:17.453Z,76.66
2018-03-02T15:07:45.026Z,76.35
2018-03-02T15:10:12.588Z,77.07
2018-03-02T15:12:40.175Z,78.41
2018-03-02T15:15:07.728Z,78.09
2018-03-02T15:17:35.257Z,79.62
2018-03-02T15:20:03.041Z,80.39
2018-03-02T15:22:30.594Z,80.72
2018-03-02T15:24:58.132Z,80.95
2018-03-02T15:27:25.687Z,78.42
2018-03-02T15:29:53.229Z,78.09
2018-03-02T15:32:20.784Z,77.98
2018-03-02T15:34:48.321Z,79.46
2018-03-02T15:37:15.892Z,78.73
2018-03-02T15:39:43.428Z,80.62
2018-03-02T15:42:10.991Z,80.24
2018-03-02T15:44:38.527Z,79.67
2018-03-02T15:47:06.112Z,80.72
2018-03-02T15:49:33.681Z,80.42
2018-03-02T15:52:01.215Z,78.75
2018-03-02T15:54:28.763Z,79.56
2018-03-02T15:56:56.294Z,78.61
2018-03-02T15:59:23.860Z,78.93
2018-03-02T16:01:51.463Z,80.02
2018-03-02T16:04:19.020Z,80.60
2018-03-02T16:06:46.556Z,80.34
2018-03-02T16:09:14.649Z,78.12
2018-03-02T16:11:42.224Z,80.02
2018-03-02T16:14:09.766Z,79.63
2018-03-02T16:16:37.678Z,79.84
2018-03-02T16:19:05.220Z,79.78
2018-03-02T16:21:33.571Z,81.27
2018-03-02T16:24:01.212Z,81.00
2018-03-02T16:26:29.391Z,82.67
2018-03-02T16:28:57.297Z,80.30
2018-03-02T16:31:24.944Z,79.18
2018-03-02T16:33:52.479Z,81.49
2018-03-02T16:36:20.006Z,81.78
2018-03-02T16:38:47.567Z,82.42
2018-03-02T16:41:15.091Z,81.17
2018-03-02T16:43:42.662Z,79.74
2018-03-02T16:46:10.207Z,79.82
2018-03-02T16:48:38.058Z,79.85
2018-03-02T16:51:08.639Z,81.68
2018-03-02T16:53:37.442Z,79.90
2018-03-02T16:56:06.952Z,80.26
2018-03-02T16:58:35.542Z,80.10
2018-03-02T17:01:03.615Z,81.10
2018-03-02T17:03:31.869Z,79.97
2018-03-02T17:06:02.523Z,80.24
2018-03-02T17:08:30.055Z,81.83
2018-03-02T17:10:57.632Z,81.81
2018-03-02T17:13:25.961Z,80.39
2018-03-02T17:15:54.736Z,80.54
2018-03-02T17:18:22.669Z,81.43
2018-03-02T17:20:50.415Z,81.44
2018-03-02T17:23:18.508Z,80.71
2018-03-02T17:25:46.093Z,79.83
2018-03-02T17:28:14.340Z,79.61
2018-03-02T17:30:42.575Z,79.76
2018-03-02T17:33:10.118Z,81.65
2018-03-02T17:35:37.650Z,79.46
2018-03-02T17:38:07.158Z,81.55
2018-03-02T17:40:34.934Z,80.72
2018-03-02T17:43:03.580Z,80.22
2018-03-02T17:45:34.138Z,80.16
2018-03-02T17:48:07.110Z,79.89
2018-03-02T17:50:34.821Z,78.89
2018-03-02T17:53:03.296Z,80.59
2018-03-02T17:55:31.200Z,80.51
2018-03-02T17:58:02.313Z,79.48
2018-03-02T18:00:31.330Z,79.26
2018-03-02T18:02:59.707Z,79.25
2018-03-02T18:05:27.318Z,79.39
2018-03-02T18:07:55.215Z,79.29
2018-03-02T18:10:23.774Z,80.72
2018-03-02T18:12:52.162Z,79.41
2018-03-02T18:15:23.180Z,79.97
2018-03-02T18:17:50.996Z,79.11
2018-03-02T18:20:18.561Z,80.82
2018-03-02T18:22:46.098Z,79.58
2018-03-02T18:25:13.718Z,79.94
2018-03-02T18:27:41.244Z,80.81
2018-03-02T18:30:08.774Z,81.35
2018-03-02T18:32:36.339Z,81.28
2018-03-02T18:35:04.702Z,81.65
2018-03-02T18:37:32.257Z,79.70
2018-03-02T18:39:59.803Z,79.68
2018-03-02T18:42:27.444Z,79.68
2018-03-02T18:44:54.974Z,79.56
2018-03-02T18:47:22.562Z,78.93
2018-03-02T18:49:50.300Z,80.32
2018-03-02T18:52:17.892Z,80.12
2018-03-02T18:54:45.431Z,79.35
2018-03-02T18:57:13.171Z,79.84
2018-03-02T18:59:40.775Z,80.12
2018-03-02T19:02:08.303Z,79.13
2018-03-02T19:04:36.576Z,80.23
2018-03-02T19:07:04.122Z,81.07
2018-03-02T19:09:31.704Z,80.77
2018-03-02T19:11:59.260Z,79.74
2018-03-02T19:14:26.842Z,80.42
2018-03-02T19:16:54.376Z,80.03
2018-03-02T19:19:21.936Z,79.63
2018-03-02T19:21:49.504Z,80.55
2018-03-02T19:24:17.078Z,80.62
2018-03-02T19:26:44.607Z,81.73
2018-03-02T19:29:12.170Z,80.58
2018-03-02T19:31:39.694Z,81.12
2018-03-02T19:34:07.233Z,79.94
2018-03-02T19:36:34.811Z,80.01
2018-03-02T19:39:02.342Z,81.43
2018-03-02T19:41:29.899Z,80.94
2018-03-02T19:43:57.446Z,82.68
2018-03-02T19:46:25.008Z,81.11
2018-03-02T19:48:52.552Z,79.66
2018-03-02T19:51:20.453Z,81.44
2018-03-02T19:53:47.977Z,80.09
2018-03-02T19:56:15.556Z,80.17
2018-03-02T19:58:43.089Z,80.09
2018-03-02T20:01:10.648Z,81.23
2018-03-02T20:03:38.238Z,80.01
2018-03-02T20:06:06.765Z,80.88
2018-03-02T20:08:34.544Z,81.31
2018-03-02T20:11:02.152Z,80.17
2018-03-02T20:13:30.027Z,79.33
2018-03-02T20:15:57.628Z,79.36
2018-03-02T20:18:25.183Z,81.35
2018-03-02T20:20:52.722Z,79.91
2018-03-02T20:23:20.299Z,80.28
2018-03-02T20:25:48.543Z,80.17
2018-03-02T20:28:16.848Z,79.54
2018-03-02T20:30:45.004Z,79.07
2018-03-02T20:33:13.241Z,80.45
2018-03-02T20:35:41.344Z,81.07
2018-03-02T20:38:09.495Z,80.47
2018-03-02T20:40:37.840Z,81.09
2018-03-02T20:43:06.123Z,79.30
2018-03-02T20:45:36.849Z,80.52
2018-03-02T20:48:04.998Z,80.25
2018-03-02T20:50:35.178Z,79.10
2018-03-02T20:53:04.940Z,78.91
2018-03-02T20:55:35.693Z,81.13
2018-03-02T20:58:06.075Z,82.54
2018-03-02T21:00:33.784Z,81.56
2018-03-02T21:03:01.964Z,79.30
2018-03-02T21:05:30.177Z,79.30
2018-03-02T21:07:58.793Z,78.33
2018-03-02T21:10:28.195Z,80.36
2018-03-02T21:12:58.619Z,78.59
2018-03-02T21:15:28.336Z,79.74
2018-03-02T21:17:59.192Z,79.03
2018-03-02T21:20:29.286Z,78.37
2018-03-02T21:22:59.195Z,79.59
2018-03-02T21:25:26.711Z,80.19
2018-03-02T21:27:56.693Z,79.38
2018-03-02T21:30:25.910Z,79.06
2018-03-02T21:32:56.654Z,78.98
2018-03-02T21:35:25.499Z,78.40
2018-03-02T21:37:56.240Z,79.00
2018-03-02T21:40:27.340Z,81.34
2018-03-02T21:42:57.188Z,80.23
2018-03-02T21:45:24.936Z,79.51
2018-03-02T21:47:52.465Z,79.64
2018-03-02T21:50:20.035Z,80.52
2018-03-02T21:52:47.561Z,80.11
2018-03-02T21:55:15.176Z,80.76
2018-03-02T21:57:42.719Z,80.17
2018-03-02T22:00:12.633Z,79.70
2018-03-02T22:02:41.039Z,79.82
2018-03-02T22:05:09.897Z,79.29
2018-03-02T22:07:37.986Z,78.88
2018-03-02T22:10:08.351Z,78.19
2018-03-02T22:12:36.427Z,79.71
2018-03-02T22:15:06.389Z,80.20
2018-03-02T22:17:36.342Z,80.96
2018-03-02T22:20:05.970Z,81.26
2018-03-02T22:22:35.933Z,79.60
2018-03-02T22:25:06.061Z,79.19
2018-03-02T22:27:35.802Z,80.96
2018-03-02T22:30:05.136Z,81.31
2018-03-02T22:32:33.510Z,81.35
2018-03-02T22:35:02.633Z,80.93
2018-03-02T22:37:31.382Z,79.64
2018-03-02T22:40:02.503Z,79.14
2018-03-02T22:42:32.843Z,80.36
2018-03-02T22:45:01.266Z,78.72
2018-03-02T22:47:29.447Z,80.64
2018-03-02T22:49:57.801Z,81.01
2018-03-02T22:52:25.417Z,80.96
2018-03-02T22:54:53.818Z,80.31
2018-03-02T22:57:21.933Z,79.08
2018-03-02T22:59:52.578Z,80.61
2018-03-02T23:02:21.024Z,79.39
2018-03-02T23:04:51.698Z,80.79
2018-03-02T23:07:22.568Z,78.94
2018-03-02T23:09:52.375Z,79.36
2018-03-02T23:12:23.356Z,81.28
2018-03-02T23:14:53.414Z,80.14
2018-03-02T23:17:21.967Z,80.06
2018-03-02T23:19:52.370Z,80.28
2018-03-02T23:22:22.472Z,80.24
2018-03-02T23:24:50.187Z,80.68
2018-03-02T23:27:17.720Z,82.11
2018-03-02T23:29:45.291Z,81.94
2018-03-02T23:32:12.856Z,80.70
2018-03-02T23:34:40.616Z,81.29
2018-03-02T23:37:08.165Z,80.34
2018-03-02T23:39:35.735Z,81.31
2018-03-02T23:42:03.267Z,79.76
2018-03-02T23:44:30.827Z,79.43
2018-03-02T23:46:58.368Z,81.62
2018-03-02T23:49:25.976Z,79.86
2018-03-02T23:51:53.524Z,79.16
2018-03-02T23:54:21.076Z,79.18
2018-03-02T23:56:48.656Z,80.50
2018-03-02T23:59:16.174Z,79.78
